createdAt,value
2023-05-08T00:02:16.826Z,7.27
2023-05-08T00:04:43.543Z,7.27
2023-05-08T00:07:11.011Z,7.38
2023-05-08T00:09:37.933Z,7.28
2023-05-08T00:12:04.981Z,7.21
2023-05-08T00:14:32.729Z,7.26
2023-05-08T00:16:59.474Z,7.40
2023-05-08T00:19:26.127Z,7.42
2023-05-08T00:21:56.843Z,7.32
2023-05-08T00:24:23.577Z,7.25
2023-05-08T00:26:50.372Z,7.12
2023-05-08T00:29:16.997Z,7.01
2023-05-08T00:31:43.648Z,6.98
2023-05-08T00:34:10.316Z,7.06
2023-05-08T00:36:36.922Z,7.00
2023-05-08T00:39:05.833Z,7.14
2023-05-08T00:41:32.443Z,7.08
2023-05-08T00:43:59.225Z,7.02
2023-05-08T00:46:26.150Z,6.95
2023-05-08T00:48:53.536Z,6.97
2023-05-08T00:51:20.843Z,6.91
2023-05-08T00:53:47.641Z,6.97
2023-05-08T00:56:17.001Z,7.00
2023-05-08T00:58:45.713Z,6.81
2023-05-08T01:01:12.577Z,6.69
2023-05-08T01:03:39.756Z,6.55
2023-05-08T01:06:07.130Z,6.59
2023-05-08T01:08:34.052Z,6.70
2023-05-08T01:11:25.071Z,6.64
2023-05-08T01:14:11.310Z,6.64
2023-05-08T01:16:43.752Z,6.75
2023-05-08T01:19:47.215Z,6.59
2023-05-08T01:22:51.030Z,6.55
2023-05-08T01:25:49.290Z,6.50
2023-05-08T01:28:28.923Z,6.45
2023-05-08T01:31:05.178Z,6.38
2023-05-08T01:34:10.627Z,6.45
2023-05-08T01:37:04.411Z,6.35
2023-05-08T01:39:57.476Z,6.43
2023-05-08T01:42:27.194Z,6.29
2023-05-08T01:45:17.326Z,6.13
2023-05-08T01:47:50.099Z,6.26
2023-05-08T01:50:25.809Z,6.19
2023-05-08T01:53:03.453Z,6.14
2023-05-08T01:55:34.695Z,6.16
2023-05-08T01:58:04.405Z,6.18
2023-05-08T02:00:31.860Z,6.14
2023-05-08T02:02:59.354Z,6.12
2023-05-08T02:05:27.742Z,5.96
2023-05-08T02:07:55.472Z,5.89
2023-05-08T02:10:24.943Z,5.97
2023-05-08T02:12:53.808Z,5.86
2023-05-08T02:15:22.063Z,5.79
2023-05-08T02:17:50.840Z,5.76
2023-05-08T02:20:20.228Z,5.81
2023-05-08T02:22:50.265Z,5.88
2023-05-08T02:25:17.896Z,5.80
2023-05-08T02:27:47.564Z,5.71
2023-05-08T02:30:16.356Z,5.80
2023-05-08T02:32:45.176Z,5.80
2023-05-08T02:35:20.163Z,5.77
2023-05-08T02:37:52.820Z,5.84
2023-05-08T02:40:22.375Z,5.93
2023-05-08T02:42:49.749Z,5.77
2023-05-08T02:45:16.791Z,5.77
2023-05-08T02:48:07.879Z,5.76
2023-05-08T02:50:51.748Z,5.84
2023-05-08T02:53:25.736Z,5.80
2023-05-08T02:55:58.162Z,5.63
2023-05-08T02:58:49.384Z,5.78
2023-05-08T03:01:30.216Z,5.64
2023-05-08T03:04:04.532Z,5.62
2023-05-08T03:06:38.882Z,5.50
2023-05-08T03:09:07.067Z,5.61
2023-05-08T03:11:40.565Z,5.55
2023-05-08T03:14:11.654Z,5.71
2023-05-08T03:16:41.619Z,5.53
2023-05-08T03:19:18.655Z,5.46
2023-05-08T03:21:46.883Z,5.42
2023-05-08T03:24:17.634Z,5.62
2023-05-08T03:26:46.112Z,5.44
2023-05-08T03:29:14.718Z,5.35
2023-05-08T03:31:43.905Z,5.26
2023-05-08T03:34:13.301Z,5.29
2023-05-08T03:36:40.755Z,5.24
2023-05-08T03:39:07.816Z,5.32
2023-05-08T03:41:34.754Z,5.28
2023-05-08T03:44:03.580Z,5.36
2023-05-08T03:46:32.127Z,5.24
2023-05-08T03:49:00.495Z,5.21
2023-05-08T03:51:28.517Z,5.25
2023-05-08T03:53:55.226Z,5.19
2023-05-08T03:56:23.077Z,5.19
2023-05-08T03:59:00.712Z,5.27
2023-05-08T04:01:46.727Z,5.19
2023-05-08T04:04:33.847Z,5.25
2023-05-08T04:07:10.664Z,5.42
2023-05-08T04:09:54.036Z,5.74
2023-05-08T04:12:32.027Z,5.61
2023-05-08T04:15:09.176Z,5.63
2023-05-08T04:17:39.153Z,5.64
2023-05-08T04:20:12.310Z,5.66
2023-05-08T04:22:41.061Z,5.67
2023-05-08T04:25:10.653Z,5.86
2023-05-08T04:27:38.609Z,5.97
2023-05-08T04:30:06.111Z,6.16
2023-05-08T04:32:35.400Z,6.01
2023-05-08T04:35:03.587Z,6.20
2023-05-08T04:37:34.031Z,6.35
2023-05-08T04:40:01.367Z,6.27
2023-05-08T04:42:28.314Z,6.48
2023-05-08T04:44:55.254Z,6.47
2023-05-08T04:47:22.225Z,6.58
2023-05-08T04:49:49.020Z,6.57
2023-05-08T04:52:16.022Z,6.63
2023-05-08T04:54:42.785Z,6.75
2023-05-08T04:57:09.836Z,6.80
2023-05-08T04:59:36.499Z,6.88
2023-05-08T05:02:03.734Z,7.06
2023-05-08T05:04:30.417Z,6.98
2023-05-08T05:06:57.593Z,7.22
2023-05-08T05:09:25.494Z,7.39
2023-05-08T05:11:52.441Z,7.44
2023-05-08T05:14:19.327Z,7.55
2023-05-08T05:16:46.531Z,7.69
2023-05-08T05:19:13.886Z,7.77
2023-05-08T05:21:41.166Z,7.79
2023-05-08T05:24:08.087Z,7.91
2023-05-08T05:26:36.391Z,7.92
2023-05-08T05:29:03.609Z,7.97
2023-05-08T05:31:30.923Z,7.92
2023-05-08T05:33:57.894Z,8.11
2023-05-08T05:36:24.540Z,8.14
2023-05-08T05:38:51.457Z,8.34
2023-05-08T05:41:18.189Z,8.48
2023-05-08T05:43:44.764Z,8.61
2023-05-08T05:46:11.550Z,8.68
2023-05-08T05:48:38.173Z,8.78
2023-05-08T05:51:04.829Z,8.82
2023-05-08T05:53:34.211Z,8.90
2023-05-08T05:56:00.909Z,9.10
2023-05-08T05:58:28.712Z,9.12
2023-05-08T06:00:58.294Z,9.32
2023-05-08T06:03:33.457Z,9.55
2023-05-08T06:06:00.159Z,9.77
2023-05-08T06:08:36.213Z,9.69
2023-05-08T06:11:07.031Z,9.71
2023-05-08T06:13:33.829Z,9.68
2023-05-08T06:16:08.554Z,9.59
2023-05-08T06:18:35.249Z,9.89
2023-05-08T06:21:02.072Z,10.09
2023-05-08T06:23:28.666Z,10.21
2023-05-08T06:25:55.488Z,10.29
2023-05-08T06:28:28.521Z,10.30
2023-05-08T06:30:58.313Z,10.52
2023-05-08T06:33:26.779Z,10.55
2023-05-08T06:35:56.648Z,10.80
2023-05-08T06:38:26.122Z,10.90
2023-05-08T06:40:55.845Z,10.93
2023-05-08T06:43:22.642Z,11.04
2023-05-08T06:45:59.258Z,11.05
2023-05-08T06:48:36.241Z,11.24
2023-05-08T06:51:03.773Z,11.40
2023-05-08T06:53:37.008Z,11.24
2023-05-08T06:56:03.708Z,11.29
2023-05-08T06:58:32.216Z,11.44
2023-05-08T07:01:04.688Z,11.48
2023-05-08T07:03:31.829Z,11.70
2023-05-08T07:05:58.676Z,11.55
2023-05-08T07:08:44.508Z,11.93
2023-05-08T07:11:11.191Z,12.20
2023-05-08T07:13:50.244Z,11.80
2023-05-08T07:16:17.377Z,12.07
2023-05-08T07:18:44.351Z,12.10
2023-05-08T07:21:11.430Z,12.04
2023-05-08T07:23:38.036Z,12.47
2023-05-08T07:26:25.520Z,12.74
2023-05-08T07:28:59.878Z,12.97
2023-05-08T07:31:27.215Z,12.88
2023-05-08T07:33:54.052Z,12.99
2023-05-08T07:36:20.760Z,13.22
2023-05-08T07:38:47.709Z,13.07
2023-05-08T07:41:17.585Z,13.06
2023-05-08T07:43:45.580Z,13.08
2023-05-08T07:46:19.437Z,12.84
2023-05-08T07:48:46.132Z,12.91
2023-05-08T07:51:23.187Z,13.00
2023-05-08T07:53:51.158Z,13.09
2023-05-08T07:56:18.050Z,13.13
2023-05-08T07:58:46.058Z,13.31
2023-05-08T08:01:15.231Z,13.37
2023-05-08T08:04:00.229Z,13.52
2023-05-08T08:06:29.692Z,13.67
2023-05-08T08:09:04.384Z,13.81
2023-05-08T08:11:32.890Z,13.72
2023-05-08T08:13:59.820Z,13.80
2023-05-08T08:16:27.055Z,13.85
2023-05-08T08:18:59.896Z,14.14
2023-05-08T08:21:29.924Z,14.14
2023-05-08T08:23:56.916Z,14.48
2023-05-08T08:26:23.639Z,14.43
2023-05-08T08:28:50.622Z,14.32
2023-05-08T08:31:17.615Z,14.80
2023-05-08T08:33:44.555Z,14.63
2023-05-08T08:36:15.564Z,14.75
2023-05-08T08:38:42.541Z,14.94
2023-05-08T08:41:09.224Z,14.55
2023-05-08T08:43:36.012Z,14.90
2023-05-08T08:46:12.317Z,14.74
2023-05-08T08:48:45.038Z,14.72
2023-05-08T08:51:18.568Z,14.39
2023-05-08T08:53:48.378Z,14.77
2023-05-08T08:56:16.844Z,14.88
2023-05-08T08:58:56.985Z,14.94
2023-05-08T09:01:24.882Z,14.93
2023-05-08T09:03:51.615Z,15.09
2023-05-08T09:06:19.790Z,15.17
2023-05-08T09:08:47.383Z,15.18
2023-05-08T09:11:14.233Z,15.41
2023-05-08T09:13:40.884Z,15.66
2023-05-08T09:16:07.773Z,15.54
2023-05-08T09:18:34.515Z,15.71
2023-05-08T09:21:01.897Z,15.85
2023-05-08T09:23:28.834Z,15.73
2023-05-08T09:25:55.462Z,15.49
2023-05-08T09:28:24.231Z,15.53
2023-05-08T09:30:55.118Z,15.57
2023-05-08T09:33:25.596Z,15.81
2023-05-08T09:35:52.931Z,16.12
2023-05-08T09:38:40.005Z,16.47
2023-05-08T09:41:06.675Z,16.25
2023-05-08T09:43:33.244Z,15.85
2023-05-08T09:46:19.933Z,15.92
2023-05-08T09:48:46.625Z,16.20
2023-05-08T09:51:13.503Z,16.11
2023-05-08T09:53:42.432Z,16.74
2023-05-08T09:56:09.753Z,16.95
2023-05-08T09:58:43.882Z,16.97
2023-05-08T10:01:46.567Z,17.09
2023-05-08T10:04:13.198Z,17.30
2023-05-08T10:06:39.882Z,17.17
2023-05-08T10:09:08.160Z,16.92
2023-05-08T10:11:34.797Z,17.06
2023-05-08T10:14:01.360Z,17.36
2023-05-08T10:16:29.866Z,16.83
2023-05-08T10:19:02.331Z,17.19
2023-05-08T10:21:30.182Z,17.48
2023-05-08T10:24:01.146Z,17.35
2023-05-08T10:26:31.511Z,17.20
2023-05-08T10:29:21.223Z,17.59
2023-05-08T10:31:54.345Z,17.92
2023-05-08T10:34:22.794Z,17.81
2023-05-08T10:36:54.178Z,17.98
2023-05-08T10:39:21.810Z,18.28
2023-05-08T10:41:49.537Z,17.75
2023-05-08T10:44:16.591Z,17.88
2023-05-08T10:46:46.865Z,17.77
2023-05-08T10:49:34.292Z,17.55
2023-05-08T10:52:12.970Z,17.29
2023-05-08T10:55:04.476Z,17.57
2023-05-08T10:57:32.156Z,17.57
2023-05-08T10:59:58.816Z,18.04
2023-05-08T11:02:31.575Z,18.05
2023-05-08T11:05:17.741Z,18.14
2023-05-08T11:08:01.277Z,18.35
2023-05-08T11:10:37.277Z,18.51
2023-05-08T11:13:05.157Z,18.43
2023-05-08T11:15:39.862Z,18.45
2023-05-08T11:18:09.868Z,18.75
2023-05-08T11:20:41.256Z,18.60
2023-05-08T11:23:28.084Z,18.63
2023-05-08T11:26:02.307Z,18.64
2023-05-08T11:28:33.303Z,18.82
2023-05-08T11:31:05.442Z,19.04
2023-05-08T11:33:41.041Z,18.73
2023-05-08T11:36:24.642Z,18.63
2023-05-08T11:39:16.029Z,18.80
2023-05-08T11:41:45.578Z,18.86
2023-05-08T11:44:23.722Z,18.62
2023-05-08T11:46:55.470Z,18.67
2023-05-08T11:49:26.269Z,18.76
2023-05-08T11:51:58.882Z,18.65
2023-05-08T11:54:29.396Z,18.76
2023-05-08T11:56:56.269Z,18.78
2023-05-08T11:59:23.274Z,18.63
2023-05-08T12:04:21.808Z,18.91
2023-05-08T12:06:50.876Z,18.89
2023-05-08T12:09:18.714Z,18.34
2023-05-08T12:11:45.643Z,18.60
2023-05-08T12:14:15.934Z,18.58
2023-05-08T12:16:46.709Z,18.79
2023-05-08T12:19:14.076Z,18.85
2023-05-08T12:21:48.794Z,18.84
2023-05-08T12:24:22.737Z,18.93
2023-05-08T12:26:50.487Z,19.00
2023-05-08T12:29:19.690Z,18.97
2023-05-08T12:31:47.505Z,18.95
2023-05-08T12:34:14.269Z,19.08
2023-05-08T12:36:40.834Z,19.29
2023-05-08T12:39:15.618Z,19.11
2023-05-08T12:41:49.929Z,19.16
2023-05-08T12:44:23.895Z,19.36
2023-05-08T12:46:54.947Z,18.99
2023-05-08T12:49:29.982Z,19.23
2023-05-08T12:52:04.715Z,19.28
2023-05-08T12:54:38.740Z,19.23
2023-05-08T12:57:16.726Z,19.23
2023-05-08T12:59:44.653Z,19.26
2023-05-08T13:02:16.239Z,19.52
2023-05-08T13:04:43.604Z,19.49
2023-05-08T13:07:10.549Z,19.21
2023-05-08T13:09:39.505Z,19.07
2023-05-08T13:12:09.528Z,18.77
2023-05-08T13:14:36.169Z,18.98
2023-05-08T13:17:02.780Z,19.07
2023-05-08T13:19:29.398Z,19.04
2023-05-08T13:21:55.985Z,19.07
2023-05-08T13:24:22.577Z,19.22
2023-05-08T13:26:49.806Z,19.25
2023-05-08T13:29:17.683Z,19.33
2023-05-08T13:31:47.067Z,19.13
2023-05-08T13:34:23.372Z,19.16
2023-05-08T13:36:50.007Z,19.25
2023-05-08T13:39:27.115Z,19.37
2023-05-08T13:41:53.961Z,18.97
2023-05-08T13:44:23.816Z,18.77
2023-05-08T13:46:59.698Z,19.07
2023-05-08T13:49:31.467Z,19.10
2023-05-08T13:51:58.308Z,19.29
2023-05-08T13:54:25.253Z,18.84
2023-05-08T13:56:55.614Z,19.11
2023-05-08T13:59:32.589Z,19.14
2023-05-08T14:02:04.683Z,19.06
2023-05-08T14:04:38.654Z,18.85
2023-05-08T14:07:05.591Z,19.10
2023-05-08T14:09:33.456Z,19.17
2023-05-08T14:12:03.243Z,19.18
2023-05-08T14:14:34.368Z,19.33
2023-05-08T14:17:04.513Z,19.24
2023-05-08T14:19:32.034Z,19.19
2023-05-08T14:22:01.263Z,19.21
2023-05-08T14:24:34.065Z,19.27
2023-05-08T14:27:11.381Z,19.07
2023-05-08T14:29:49.253Z,19.38
2023-05-08T14:32:17.478Z,18.86
2023-05-08T14:34:54.870Z,19.15
2023-05-08T14:37:24.792Z,19.15
2023-05-08T14:39:58.206Z,19.28
2023-05-08T14:42:25.495Z,19.18
2023-05-08T14:44:58.961Z,19.23
2023-05-08T14:47:39.929Z,19.36
2023-05-08T14:50:07.626Z,19.31
2023-05-08T14:52:37.369Z,19.23
2023-05-08T14:55:12.382Z,19.25
2023-05-08T14:57:42.552Z,19.32
2023-05-08T15:00:09.937Z,19.28
2023-05-08T15:02:36.584Z,19.19
2023-05-08T15:05:08.137Z,19.20
2023-05-08T15:07:38.603Z,18.96
2023-05-08T15:10:06.666Z,19.16
2023-05-08T15:12:33.559Z,19.14
2023-05-08T15:15:01.614Z,19.21
2023-05-08T15:17:30.458Z,19.15
2023-05-08T15:19:57.073Z,18.89
2023-05-08T15:22:23.670Z,19.11
2023-05-08T15:24:50.241Z,19.40
2023-05-08T15:27:16.975Z,19.38
2023-05-08T15:29:43.579Z,19.20
2023-05-08T15:32:10.454Z,19.05
2023-05-08T15:34:38.574Z,19.06
2023-05-08T15:37:06.580Z,19.26
2023-05-08T15:39:35.782Z,19.40
2023-05-08T15:42:02.368Z,19.51
2023-05-08T15:44:42.085Z,19.33
2023-05-08T15:47:15.504Z,19.41
2023-05-08T15:49:42.102Z,19.65
2023-05-08T15:52:08.686Z,19.70
2023-05-08T15:54:35.375Z,19.87
2023-05-08T15:57:01.996Z,20.07
2023-05-08T15:59:28.567Z,20.38
2023-05-08T16:01:55.202Z,20.40
2023-05-08T16:04:21.776Z,20.68
2023-05-08T16:06:48.363Z,21.12
2023-05-08T16:09:14.976Z,20.70
2023-05-08T16:11:42.982Z,20.85
2023-05-08T16:14:09.611Z,20.63
2023-05-08T16:16:39.126Z,20.59
2023-05-08T16:19:05.800Z,20.74
2023-05-08T16:21:32.373Z,20.61
2023-05-08T16:23:59.012Z,21.05
2023-05-08T16:26:26.406Z,20.82
2023-05-08T16:28:53.203Z,21.41
2023-05-08T16:31:19.841Z,21.29
2023-05-08T16:33:46.539Z,21.15
2023-05-08T16:36:13.333Z,21.03
2023-05-08T16:38:39.945Z,20.97
2023-05-08T16:41:09.158Z,20.86
2023-05-08T16:43:35.765Z,20.53
2023-05-08T16:46:02.385Z,20.55
2023-05-08T16:48:30.326Z,20.60
2023-05-08T16:50:57.232Z,20.59
2023-05-08T16:53:23.942Z,19.94
2023-05-08T16:55:50.799Z,19.89
2023-05-08T16:58:24.492Z,19.48
2023-05-08T17:00:51.081Z,18.76
2023-05-08T17:03:17.811Z,18.24
2023-05-08T17:05:44.402Z,17.84
2023-05-08T17:08:11.897Z,17.81
2023-05-08T17:10:39.515Z,17.58
2023-05-08T17:13:06.228Z,17.45
2023-05-08T17:15:32.975Z,17.34
2023-05-08T17:17:59.629Z,17.44
2023-05-08T17:20:26.328Z,17.62
2023-05-08T17:22:54.043Z,18.42
2023-05-08T17:25:22.556Z,19.38
2023-05-08T17:27:49.238Z,19.71
2023-05-08T17:30:17.007Z,20.39
2023-05-08T17:32:43.796Z,20.26
2023-05-08T17:35:10.475Z,20.82
2023-05-08T17:37:37.324Z,21.11
2023-05-08T17:40:04.212Z,20.94
2023-05-08T17:42:30.876Z,20.88
2023-05-08T17:44:57.512Z,21.66
2023-05-08T17:47:24.145Z,20.84
2023-05-08T17:49:50.979Z,21.28
2023-05-08T17:52:17.663Z,21.16
2023-05-08T17:54:44.268Z,21.22
2023-05-08T17:57:10.868Z,20.73
2023-05-08T17:59:37.490Z,20.96
2023-05-08T18:02:04.113Z,20.67
2023-05-08T18:04:30.723Z,20.05
2023-05-08T18:06:57.318Z,19.66
2023-05-08T18:09:23.916Z,19.54
2023-05-08T18:11:50.550Z,17.85
2023-05-08T18:14:17.103Z,17.30
2023-05-08T18:16:43.690Z,16.79
2023-05-08T18:19:10.383Z,16.24
2023-05-08T18:21:37.072Z,15.92
2023-05-08T18:24:04.040Z,15.80
2023-05-08T18:26:30.831Z,15.68
2023-05-08T18:28:57.546Z,15.53
2023-05-08T18:31:24.251Z,15.40
2023-05-08T18:33:50.883Z,15.01
2023-05-08T18:36:17.471Z,14.85
2023-05-08T18:38:44.174Z,14.72
2023-05-08T18:41:10.788Z,14.51
2023-05-08T18:43:37.411Z,14.44
2023-05-08T18:46:12.456Z,14.30
2023-05-08T18:48:42.777Z,14.17
2023-05-08T18:51:10.232Z,13.97
2023-05-08T18:53:38.423Z,13.92
2023-05-08T18:56:05.345Z,13.74
2023-05-08T18:58:32.081Z,13.67
2023-05-08T19:00:58.944Z,13.60
2023-05-08T19:03:26.055Z,13.39
2023-05-08T19:05:54.788Z,13.46
2023-05-08T19:08:21.454Z,13.45
2023-05-08T19:10:48.052Z,13.35
2023-05-08T19:13:14.930Z,13.34
2023-05-08T19:15:41.737Z,13.24
2023-05-08T19:18:09.082Z,13.14
2023-05-08T19:20:36.067Z,13.24
2023-05-08T19:23:02.793Z,13.03
2023-05-08T19:25:29.588Z,13.14
2023-05-08T19:27:57.347Z,12.96
2023-05-08T19:30:24.123Z,12.80
2023-05-08T19:32:50.828Z,12.78
2023-05-08T19:35:17.452Z,12.77
2023-05-08T19:37:44.051Z,12.87
2023-05-08T19:40:11.408Z,12.67
2023-05-08T19:42:38.548Z,12.60
2023-05-08T19:45:05.591Z,12.70
2023-05-08T19:47:32.272Z,12.43
2023-05-08T19:49:58.901Z,12.43
2023-05-08T19:52:25.613Z,12.25
2023-05-08T19:54:52.277Z,12.02
2023-05-08T19:57:19.059Z,12.06
2023-05-08T19:59:45.679Z,12.09
2023-05-08T20:02:12.275Z,11.99
2023-05-08T20:04:54.504Z,11.76
2023-05-08T20:07:26.161Z,11.66
2023-05-08T20:09:52.881Z,11.65
2023-05-08T20:12:19.613Z,11.62
2023-05-08T20:14:46.206Z,11.58
2023-05-08T20:17:12.869Z,11.71
2023-05-08T20:19:39.524Z,11.58
2023-05-08T20:22:06.206Z,11.56
2023-05-08T20:24:32.790Z,11.80
2023-05-08T20:26:59.479Z,11.65
2023-05-08T20:29:26.679Z,11.64
2023-05-08T20:31:53.785Z,11.72
2023-05-08T20:34:21.946Z,11.65
2023-05-08T20:36:48.982Z,11.65
2023-05-08T20:39:15.693Z,11.63
2023-05-08T20:41:42.324Z,11.64
2023-05-08T20:44:08.938Z,11.63
2023-05-08T20:46:35.676Z,11.35
2023-05-08T20:49:04.027Z,11.27
2023-05-08T20:51:31.967Z,11.09
2023-05-08T20:53:58.713Z,11.00
2023-05-08T20:56:25.558Z,11.04
2023-05-08T20:58:52.423Z,10.94
2023-05-08T21:01:20.821Z,10.87
2023-05-08T21:03:48.717Z,11.02
2023-05-08T21:06:15.487Z,10.97
2023-05-08T21:08:42.144Z,10.82
2023-05-08T21:11:09.044Z,10.87
2023-05-08T21:13:35.667Z,10.78
2023-05-08T21:16:02.270Z,11.00
2023-05-08T21:18:28.899Z,11.05
2023-05-08T21:20:55.600Z,10.93
2023-05-08T21:23:22.408Z,10.98
2023-05-08T21:25:49.918Z,10.91
2023-05-08T21:28:17.017Z,10.82
2023-05-08T21:30:44.327Z,10.67
2023-05-08T21:33:13.725Z,10.61
2023-05-08T21:35:43.820Z,10.59
2023-05-08T21:38:12.189Z,10.52
2023-05-08T21:40:39.353Z,10.60
2023-05-08T21:43:06.047Z,10.66
2023-05-08T21:45:33.334Z,10.80
2023-05-08T21:48:00.532Z,10.59
2023-05-08T21:50:28.490Z,10.54
2023-05-08T21:52:56.561Z,10.58
2023-05-08T21:55:23.424Z,10.64
2023-05-08T21:57:50.077Z,10.49
2023-05-08T22:00:17.085Z,10.50
2023-05-08T22:02:43.732Z,10.34
2023-05-08T22:05:10.628Z,10.20
2023-05-08T22:07:37.369Z,10.39
2023-05-08T22:10:04.358Z,10.47
2023-05-08T22:12:30.944Z,10.27
2023-05-08T22:14:57.613Z,10.25
2023-05-08T22:17:24.177Z,10.18
2023-05-08T22:19:50.825Z,10.14
2023-05-08T22:22:17.544Z,10.12
2023-05-08T22:24:44.175Z,10.06
2023-05-08T22:27:10.908Z,10.01
2023-05-08T22:29:37.472Z,9.93
2023-05-08T22:32:04.292Z,9.95
2023-05-08T22:34:31.024Z,9.93
2023-05-08T22:36:57.606Z,10.06
2023-05-08T22:39:24.172Z,10.00
2023-05-08T22:41:50.789Z,9.78
2023-05-08T22:44:17.437Z,9.75
2023-05-08T22:46:44.228Z,9.74
2023-05-08T22:49:11.116Z,9.88
2023-05-08T22:51:39.057Z,9.74
2023-05-08T22:54:05.806Z,9.90
2023-05-08T22:56:32.425Z,9.82
2023-05-08T22:58:59.158Z,9.82
2023-05-08T23:01:25.802Z,9.68
2023-05-08T23:03:53.819Z,9.81
2023-05-08T23:06:20.707Z,9.61
2023-05-08T23:08:47.344Z,9.64
2023-05-08T23:11:14.160Z,9.72
2023-05-08T23:13:40.746Z,9.69
2023-05-08T23:16:07.479Z,9.49
2023-05-08T23:18:34.566Z,9.53
2023-05-08T23:21:06.329Z,9.59
2023-05-08T23:23:33.093Z,9.69
2023-05-08T23:26:01.158Z,9.43
2023-05-08T23:28:27.871Z,9.47
2023-05-08T23:30:54.452Z,9.46
2023-05-08T23:33:21.009Z,9.49
2023-05-08T23:35:47.616Z,9.38
2023-05-08T23:38:14.223Z,9.56
2023-05-08T23:40:40.773Z,9.63
2023-05-08T23:43:07.328Z,9.48
2023-05-08T23:45:33.906Z,9.49
2023-05-08T23:48:00.567Z,9.53
2023-05-08T23:50:27.151Z,9.38
2023-05-08T23:52:53.764Z,9.31
2023-05-08T23:55:20.434Z,9.30
2023-05-08T23:57:47.238Z,9.31
